sensor_id;sensor_type;location;lat;lon;timestamp;pressure;altitude;pressure_sealevel;temperature;humidity
23733;BME280;12047;53.450;-2.286;2023-07-31T00:02:02;100034.50;;;21.44;100.00
23733;BME280;12047;53.450;-2.286;2023-07-31T00:07:03;100029.09;;;21.44;100.00
23733;BME280;12047;53.450;-2.286;2023-07-31T00:12:04;100028.94;;;21.57;100.00
23733;BME280;12047;53.450;-2.286;2023-07-31T00:17:05;100030.19;;;21.55;100.00
23733;BME280;12047;53.450;-2.286;2023-07-31T00:22:05;100025.47;;;21.68;100.00
23733;BME280;12047;53.450;-2.286;2023-07-31T00:27:06;100014.19;;;21.60;100.00
23733;BME280;12047;53.450;-2.286;2023-07-31T00:32:07;100009.84;;;21.59;100.00
23733;BME280;12047;53.450;-2.286;2023-07-31T00:37:07;100008.34;;;21.63;100.00
23733;BME280;12047;53.450;-2.286;2023-07-31T00:42:08;100008.19;;;21.58;100.00
23733;BME280;12047;53.450;-2.286;2023-07-31T00:47:08;99998.91;;;21.54;100.00
23733;BME280;12047;53.450;-2.286;2023-07-31T00:52:09;99984.00;;;21.69;100.00
23733;BME280;12047;53.450;-2.286;2023-07-31T00:57:10;99975.72;;;21.83;100.00
23733;BME280;12047;53.450;-2.286;2023-07-31T01:02:11;99968.03;;;21.68;100.00
23733;BME280;12047;53.450;-2.286;2023-07-31T01:07:27;99964.06;;;21.70;100.00
23733;BME280;12047;53.450;-2.286;2023-07-31T01:12:31;99956.22;;;21.81;100.00
23733;BME280;12047;53.450;-2.286;2023-07-31T01:17:32;99962.28;;;21.64;100.00
23733;BME280;12047;53.450;-2.286;2023-07-31T01:27:43;99958.25;;;21.85;100.00
23733;BME280;12047;53.450;-2.286;2023-07-31T01:32:48;99953.22;;;21.89;100.00
23733;BME280;12047;53.450;-2.286;2023-07-31T01:37:48;99962.22;;;22.01;100.00
23733;BME280;12047;53.450;-2.286;2023-07-31T01:42:49;99958.25;;;21.85;100.00
23733;BME280;12047;53.450;-2.286;2023-07-31T01:47:49;99964.56;;;22.09;100.00
23733;BME280;12047;53.450;-2.286;2023-07-31T01:52:50;99965.28;;;21.86;100.00
23733;BME280;12047;53.450;-2.286;2023-07-31T01:57:51;99949.84;;;22.47;100.00
23733;BME280;12047;53.450;-2.286;2023-07-31T02:02:52;99953.38;;;21.94;100.00
23733;BME280;12047;53.450;-2.286;2023-07-31T02:07:53;99939.69;;;22.07;100.00
23733;BME280;12047;53.450;-2.286;2023-07-31T02:12:53;99942.78;;;22.22;100.00
23733;BME280;12047;53.450;-2.286;2023-07-31T02:17:53;99937.75;;;22.26;100.00
23733;BME280;12047;53.450;-2.286;2023-07-31T02:22:54;99919.28;;;22.11;100.00
23733;BME280;12047;53.450;-2.286;2023-07-31T02:27:54;99925.78;;;22.45;100.00
23733;BME280;12047;53.450;-2.286;2023-07-31T02:32:55;99924.59;;;22.18;100.00
23733;BME280;12047;53.450;-2.286;2023-07-31T02:37:55;99921.78;;;22.71;100.00
23733;BME280;12047;53.450;-2.286;2023-07-31T02:42:56;99916.72;;;22.16;100.00
23733;BME280;12047;53.450;-2.286;2023-07-31T02:47:56;99913.91;;;22.23;100.00
23733;BME280;12047;53.450;-2.286;2023-07-31T02:52:56;99910.59;;;21.67;100.00
23733;BME280;12047;53.450;-2.286;2023-07-31T02:57:57;99906.63;;;22.58;100.00
23733;BME280;12047;53.450;-2.286;2023-07-31T03:02:58;99904.88;;;22.40;100.00
23733;BME280;12047;53.450;-2.286;2023-07-31T03:07:58;99908.97;;;22.31;100.00
23733;BME280;12047;53.450;-2.286;2023-07-31T03:12:59;99902.31;;;22.22;100.00
23733;BME280;12047;53.450;-2.286;2023-07-31T03:17:59;99904.19;;;22.33;100.00
23733;BME280;12047;53.450;-2.286;2023-07-31T03:23:00;99900.19;;;22.59;100.00
23733;BME280;12047;53.450;-2.286;2023-07-31T03:28:00;99898.56;;;22.23;100.00
23733;BME280;12047;53.450;-2.286;2023-07-31T03:33:01;99898.53;;;22.58;100.00
23733;BME280;12047;53.450;-2.286;2023-07-31T03:38:01;99904.53;;;22.60;100.00
23733;BME280;12047;53.450;-2.286;2023-07-31T03:43:02;99903.25;;;22.51;100.00
23733;BME280;12047;53.450;-2.286;2023-07-31T03:48:03;99894.56;;;22.49;100.00
23733;BME280;12047;53.450;-2.286;2023-07-31T03:53:04;99889.41;;;22.48;100.00
23733;BME280;12047;53.450;-2.286;2023-07-31T03:58:04;99895.97;;;22.52;100.00
23733;BME280;12047;53.450;-2.286;2023-07-31T04:03:05;99904.75;;;22.35;100.00
23733;BME280;12047;53.450;-2.286;2023-07-31T04:08:05;99888.94;;;22.51;100.00
23733;BME280;12047;53.450;-2.286;2023-07-31T04:13:06;99900.19;;;22.83;100.00
23733;BME280;12047;53.450;-2.286;2023-07-31T04:18:06;99907.56;;;22.87;100.00
23733;BME280;12047;53.450;-2.286;2023-07-31T04:23:06;99919.69;;;22.73;100.00
23733;BME280;12047;53.450;-2.286;2023-07-31T04:28:07;99908.94;;;23.01;100.00
23733;BME280;12047;53.450;-2.286;2023-07-31T04:33:08;99921.19;;;22.69;100.00
23733;BME280;12047;53.450;-2.286;2023-07-31T04:38:08;99913.09;;;22.57;100.00
23733;BME280;12047;53.450;-2.286;2023-07-31T04:43:09;99903.13;;;22.81;100.00
23733;BME280;12047;53.450;-2.286;2023-07-31T04:48:09;99903.00;;;22.64;100.00
23733;BME280;12047;53.450;-2.286;2023-07-31T04:53:09;99901.00;;;22.83;100.00
23733;BME280;12047;53.450;-2.286;2023-07-31T04:58:10;99919.78;;;22.78;100.00
23733;BME280;12047;53.450;-2.286;2023-07-31T05:03:10;99921.31;;;22.97;100.00
23733;BME280;12047;53.450;-2.286;2023-07-31T05:08:11;99916.16;;;22.96;100.00
23733;BME280;12047;53.450;-2.286;2023-07-31T05:13:12;99916.41;;;22.48;100.00
23733;BME280;12047;53.450;-2.286;2023-07-31T05:18:12;99924.97;;;22.80;100.00
23733;BME280;12047;53.450;-2.286;2023-07-31T05:23:13;99910.16;;;22.70;100.00
23733;BME280;12047;53.450;-2.286;2023-07-31T05:28:13;99907.00;;;22.73;100.00
23733;BME280;12047;53.450;-2.286;2023-07-31T05:33:14;99912.16;;;22.63;100.00
23733;BME280;12047;53.450;-2.286;2023-07-31T05:38:14;99914.97;;;22.57;100.00
23733;BME280;12047;53.450;-2.286;2023-07-31T05:43:14;99908.88;;;22.73;100.00
23733;BME280;12047;53.450;-2.286;2023-07-31T05:48:15;99898.31;;;22.36;100.00
23733;BME280;12047;53.450;-2.286;2023-07-31T05:53:15;99896.78;;;22.87;100.00
23733;BME280;12047;53.450;-2.286;2023-07-31T05:58:16;99880.94;;;22.79;100.00
23733;BME280;12047;53.450;-2.286;2023-07-31T06:03:16;99887.63;;;22.88;100.00
23733;BME280;12047;53.450;-2.286;2023-07-31T06:08:16;99889.72;;;22.98;100.00
23733;BME280;12047;53.450;-2.286;2023-07-31T06:13:17;99892.41;;;22.98;100.00
23733;BME280;12047;53.450;-2.286;2023-07-31T06:18:17;99875.97;;;22.99;100.00
23733;BME280;12047;53.450;-2.286;2023-07-31T06:23:18;99894.66;;;22.66;100.00
23733;BME280;12047;53.450;-2.286;2023-07-31T06:28:18;99886.09;;;22.92;100.00
23733;BME280;12047;53.450;-2.286;2023-07-31T06:33:19;99891.78;;;23.07;100.00
23733;BME280;12047;53.450;-2.286;2023-07-31T06:38:22;99900.38;;;23.04;100.00
23733;BME280;12047;53.450;-2.286;2023-07-31T06:43:23;99896.84;;;23.04;100.00
23733;BME280;12047;53.450;-2.286;2023-07-31T06:48:23;99906.75;;;22.87;100.00
23733;BME280;12047;53.450;-2.286;2023-07-31T06:53:24;99909.88;;;23.07;100.00
23733;BME280;12047;53.450;-2.286;2023-07-31T06:58:25;99901.34;;;22.87;100.00
23733;BME280;12047;53.450;-2.286;2023-07-31T07:03:25;99914.56;;;23.12;100.00
23733;BME280;12047;53.450;-2.286;2023-07-31T07:08:25;99902.28;;;22.81;100.00
23733;BME280;12047;53.450;-2.286;2023-07-31T07:13:26;99891.28;;;23.22;100.00
23733;BME280;12047;53.450;-2.286;2023-07-31T07:18:27;99890.91;;;22.90;100.00
23733;BME280;12047;53.450;-2.286;2023-07-31T07:23:28;99875.53;;;22.79;100.00
23733;BME280;12047;53.450;-2.286;2023-07-31T07:28:28;99881.75;;;22.68;100.00
23733;BME280;12047;53.450;-2.286;2023-07-31T07:33:28;99887.38;;;22.78;100.00
23733;BME280;12047;53.450;-2.286;2023-07-31T07:43:29;99893.25;;;22.98;100.00
23733;BME280;12047;53.450;-2.286;2023-07-31T07:48:30;99900.41;;;23.33;100.00
23733;BME280;12047;53.450;-2.286;2023-07-31T07:53:30;99903.56;;;23.30;100.00
23733;BME280;12047;53.450;-2.286;2023-07-31T07:58:31;99892.41;;;22.98;100.00
23733;BME280;12047;53.450;-2.286;2023-07-31T08:03:31;99885.53;;;23.19;100.00
23733;BME280;12047;53.450;-2.286;2023-07-31T08:08:32;99867.81;;;23.39;100.00
23733;BME280;12047;53.450;-2.286;2023-07-31T08:13:32;99870.25;;;23.24;100.00
23733;BME280;12047;53.450;-2.286;2023-07-31T08:18:33;99875.59;;;23.64;100.00
23733;BME280;12047;53.450;-2.286;2023-07-31T08:23:33;99871.63;;;23.27;100.00
23733;BME280;12047;53.450;-2.286;2023-07-31T08:28:34;99879.13;;;23.82;100.00
23733;BME280;12047;53.450;-2.286;2023-07-31T08:33:37;99873.03;;;23.58;100.00
23733;BME280;12047;53.450;-2.286;2023-07-31T08:38:37;99876.03;;;23.45;100.00
23733;BME280;12047;53.450;-2.286;2023-07-31T08:43:38;99873.16;;;24.13;100.00
23733;BME280;12047;53.450;-2.286;2023-07-31T08:48:41;99869.97;;;23.83;100.00
23733;BME280;12047;53.450;-2.286;2023-07-31T08:53:42;99860.94;;;23.60;100.00
23733;BME280;12047;53.450;-2.286;2023-07-31T08:58:43;99863.50;;;23.27;100.00
23733;BME280;12047;53.450;-2.286;2023-07-31T09:03:44;99847.50;;;23.08;100.00
23733;BME280;12047;53.450;-2.286;2023-07-31T09:08:45;99844.41;;;23.45;100.00
23733;BME280;12047;53.450;-2.286;2023-07-31T09:13:46;99853.25;;;23.12;100.00
23733;BME280;12047;53.450;-2.286;2023-07-31T09:18:54;99846.41;;;23.21;100.00
23733;BME280;12047;53.450;-2.286;2023-07-31T09:23:57;99850.97;;;22.92;100.00
23733;BME280;12047;53.450;-2.286;2023-07-31T09:28:58;99861.25;;;23.07;100.00
23733;BME280;12047;53.450;-2.286;2023-07-31T09:33:59;99860.06;;;23.03;100.00
23733;BME280;12047;53.450;-2.286;2023-07-31T09:39:03;99856.53;;;23.14;100.00
23733;BME280;12047;53.450;-2.286;2023-07-31T09:44:04;99858.28;;;23.20;100.00
23733;BME280;12047;53.450;-2.286;2023-07-31T09:54:13;99859.38;;;23.36;100.00
23733;BME280;12047;53.450;-2.286;2023-07-31T09:59:19;99846.78;;;23.13;100.00
23733;BME280;12047;53.450;-2.286;2023-07-31T10:04:21;99849.97;;;23.10;100.00
23733;BME280;12047;53.450;-2.286;2023-07-31T10:09:30;99863.34;;;23.17;100.00
23733;BME280;12047;53.450;-2.286;2023-07-31T10:14:32;99860.72;;;23.50;100.00
23733;BME280;12047;53.450;-2.286;2023-07-31T10:19:32;99874.34;;;23.55;100.00
23733;BME280;12047;53.450;-2.286;2023-07-31T10:24:36;99865.66;;;23.25;100.00
23733;BME280;12047;53.450;-2.286;2023-07-31T10:29:38;99846.28;;;23.45;100.00
23733;BME280;12047;53.450;-2.286;2023-07-31T10:34:40;99833.78;;;23.55;100.00
23733;BME280;12047;53.450;-2.286;2023-07-31T10:39:41;99823.88;;;23.32;100.00
23733;BME280;12047;53.450;-2.286;2023-07-31T10:44:46;99820.13;;;23.95;100.00
23733;BME280;12047;53.450;-2.286;2023-07-31T10:49:48;99827.25;;;23.85;100.00
23733;BME280;12047;53.450;-2.286;2023-07-31T11:00:26;99813.50;;;23.41;100.00
23733;BME280;12047;53.450;-2.286;2023-07-31T11:05:50;99796.75;;;23.56;100.00
23733;BME280;12047;53.450;-2.286;2023-07-31T11:11:12;99818.06;;;23.52;100.00
23733;BME280;12047;53.450;-2.286;2023-07-31T11:16:13;99834.75;;;23.49;100.00
23733;BME280;12047;53.450;-2.286;2023-07-31T11:21:15;99841.00;;;23.21;100.00
23733;BME280;12047;53.450;-2.286;2023-07-31T11:26:17;99845.13;;;23.40;100.00
23733;BME280;12047;53.450;-2.286;2023-07-31T11:31:18;99832.91;;;23.38;100.00
23733;BME280;12047;53.450;-2.286;2023-07-31T11:36:19;99837.75;;;23.07;100.00
23733;BME280;12047;53.450;-2.286;2023-07-31T11:41:20;99831.13;;;22.87;100.00
23733;BME280;12047;53.450;-2.286;2023-07-31T11:46:21;99820.56;;;22.85;100.00
23733;BME280;12047;53.450;-2.286;2023-07-31T11:51:22;99814.81;;;23.67;100.00
23733;BME280;12047;53.450;-2.286;2023-07-31T12:01:24;99804.72;;;23.34;100.00
23733;BME280;12047;53.450;-2.286;2023-07-31T12:06:34;99815.44;;;23.29;100.00
23733;BME280;12047;53.450;-2.286;2023-07-31T12:11:53;99816.53;;;22.99;100.00
23733;BME280;12047;53.450;-2.286;2023-07-31T12:17:20;99815.63;;;23.39;100.00
23733;BME280;12047;53.450;-2.286;2023-07-31T12:22:21;99802.34;;;23.21;100.00
23733;BME280;12047;53.450;-2.286;2023-07-31T12:27:21;99800.00;;;22.84;100.00
23733;BME280;12047;53.450;-2.286;2023-07-31T12:32:25;99812.09;;;23.22;100.00
23733;BME280;12047;53.450;-2.286;2023-07-31T12:37:28;99800.75;;;23.08;100.00
23733;BME280;12047;53.450;-2.286;2023-07-31T12:42:30;99805.22;;;23.02;100.00
23733;BME280;12047;53.450;-2.286;2023-07-31T12:47:31;99798.88;;;22.57;100.00
23733;BME280;12047;53.450;-2.286;2023-07-31T12:52:31;99790.16;;;23.06;100.00
23733;BME280;12047;53.450;-2.286;2023-07-31T12:57:33;99792.06;;;22.66;100.00
23733;BME280;12047;53.450;-2.286;2023-07-31T13:02:33;99790.84;;;23.14;100.00
23733;BME280;12047;53.450;-2.286;2023-07-31T13:07:34;99787.94;;;23.03;100.00
23733;BME280;12047;53.450;-2.286;2023-07-31T13:12:34;99773.84;;;23.30;100.00
23733;BME280;12047;53.450;-2.286;2023-07-31T13:17:35;99769.59;;;22.89;100.00
23733;BME280;12047;53.450;-2.286;2023-07-31T13:22:36;99762.06;;;23.19;100.00
23733;BME280;12047;53.450;-2.286;2023-07-31T13:27:36;99755.25;;;23.17;100.00
23733;BME280;12047;53.450;-2.286;2023-07-31T13:32:37;99746.94;;;23.06;100.00
23733;BME280;12047;53.450;-2.286;2023-07-31T13:37:40;99756.59;;;22.74;100.00
23733;BME280;12047;53.450;-2.286;2023-07-31T13:42:40;99746.63;;;22.63;100.00
23733;BME280;12047;53.450;-2.286;2023-07-31T13:47:41;99742.22;;;23.14;100.00
23733;BME280;12047;53.450;-2.286;2023-07-31T13:52:41;99741.75;;;22.88;100.00
23733;BME280;12047;53.450;-2.286;2023-07-31T13:57:42;99727.91;;;22.85;100.00
23733;BME280;12047;53.450;-2.286;2023-07-31T14:02:43;99734.44;;;23.00;100.00
23733;BME280;12047;53.450;-2.286;2023-07-31T14:07:43;99732.19;;;23.26;100.00
23733;BME280;12047;53.450;-2.286;2023-07-31T14:12:44;99737.66;;;22.86;100.00
23733;BME280;12047;53.450;-2.286;2023-07-31T14:17:44;99753.09;;;22.10;100.00
23733;BME280;12047;53.450;-2.286;2023-07-31T14:22:45;99751.28;;;21.57;100.00
23733;BME280;12047;53.450;-2.286;2023-07-31T14:27:45;99754.16;;;21.21;100.00
23733;BME280;12047;53.450;-2.286;2023-07-31T14:32:46;99772.03;;;21.57;100.00
23733;BME280;12047;53.450;-2.286;2023-07-31T14:37:47;99781.16;;;20.84;100.00
23733;BME280;12047;53.450;-2.286;2023-07-31T14:42:47;99758.09;;;21.18;100.00
23733;BME280;12047;53.450;-2.286;2023-07-31T14:47:48;99753.25;;;21.27;100.00
23733;BME280;12047;53.450;-2.286;2023-07-31T14:52:49;99756.91;;;21.44;100.00
23733;BME280;12047;53.450;-2.286;2023-07-31T14:57:49;99756.50;;;21.29;100.00
23733;BME280;12047;53.450;-2.286;2023-07-31T15:02:50;99761.97;;;21.87;100.00
23733;BME280;12047;53.450;-2.286;2023-07-31T15:07:50;99760.34;;;21.75;100.00
23733;BME280;12047;53.450;-2.286;2023-07-31T15:12:51;99750.25;;;21.47;100.00
23733;BME280;12047;53.450;-2.286;2023-07-31T15:17:51;99737.84;;;21.92;100.00
23733;BME280;12047;53.450;-2.286;2023-07-31T15:22:52;99747.56;;;22.17;100.00
23733;BME280;12047;53.450;-2.286;2023-07-31T15:27:52;99738.72;;;22.45;100.00
23733;BME280;12047;53.450;-2.286;2023-07-31T15:32:53;99737.91;;;22.32;100.00
23733;BME280;12047;53.450;-2.286;2023-07-31T15:37:53;99734.78;;;22.24;100.00
23733;BME280;12047;53.450;-2.286;2023-07-31T15:42:54;99728.88;;;22.38;100.00
23733;BME280;12047;53.450;-2.286;2023-07-31T15:47:54;99729.38;;;22.64;100.00
23733;BME280;12047;53.450;-2.286;2023-07-31T15:52:55;99715.56;;;22.77;100.00
23733;BME280;12047;53.450;-2.286;2023-07-31T15:57:55;99712.28;;;22.87;100.00
23733;BME280;12047;53.450;-2.286;2023-07-31T16:02:55;99710.66;;;22.86;100.00
23733;BME280;12047;53.450;-2.286;2023-07-31T16:07:56;99712.88;;;22.77;100.00
23733;BME280;12047;53.450;-2.286;2023-07-31T16:12:57;99706.41;;;23.06;100.00
23733;BME280;12047;53.450;-2.286;2023-07-31T16:17:57;99692.78;;;22.56;100.00
23733;BME280;12047;53.450;-2.286;2023-07-31T16:22:57;99685.47;;;23.14;100.00
23733;BME280;12047;53.450;-2.286;2023-07-31T16:27:58;99682.97;;;23.24;100.00
23733;BME280;12047;53.450;-2.286;2023-07-31T16:33:00;99687.41;;;22.85;100.00
23733;BME280;12047;53.450;-2.286;2023-07-31T16:38:00;99679.91;;;23.54;100.00
23733;BME280;12047;53.450;-2.286;2023-07-31T16:43:01;99679.69;;;23.22;100.00
23733;BME280;12047;53.450;-2.286;2023-07-31T16:48:01;99675.78;;;23.85;100.00
23733;BME280;12047;53.450;-2.286;2023-07-31T16:53:02;99660.91;;;23.32;100.00
23733;BME280;12047;53.450;-2.286;2023-07-31T16:58:03;99664.50;;;23.04;100.00
23733;BME280;12047;53.450;-2.286;2023-07-31T17:03:03;99662.22;;;23.13;100.00
23733;BME280;12047;53.450;-2.286;2023-07-31T17:08:05;99646.94;;;22.73;100.00
23733;BME280;12047;53.450;-2.286;2023-07-31T17:13:06;99636.00;;;22.80;100.00
23733;BME280;12047;53.450;-2.286;2023-07-31T17:18:06;99625.63;;;22.60;100.00
23733;BME280;12047;53.450;-2.286;2023-07-31T17:23:08;99630.53;;;22.91;100.00
23733;BME280;12047;53.450;-2.286;2023-07-31T17:28:08;99631.50;;;23.35;100.00
23733;BME280;12047;53.450;-2.286;2023-07-31T17:33:09;99627.97;;;23.35;100.00
23733;BME280;12047;53.450;-2.286;2023-07-31T17:38:09;99631.94;;;23.11;100.00
23733;BME280;12047;53.450;-2.286;2023-07-31T17:43:10;99628.81;;;22.85;100.00
23733;BME280;12047;53.450;-2.286;2023-07-31T17:48:10;99624.88;;;23.26;100.00
23733;BME280;12047;53.450;-2.286;2023-07-31T17:53:11;99614.88;;;23.27;100.00
23733;BME280;12047;53.450;-2.286;2023-07-31T17:58:12;99617.03;;;23.08;100.00
23733;BME280;12047;53.450;-2.286;2023-07-31T18:03:12;99617.56;;;22.77;100.00
23733;BME280;12047;53.450;-2.286;2023-07-31T18:08:13;99614.16;;;22.53;100.00
23733;BME280;12047;53.450;-2.286;2023-07-31T18:13:13;99615.53;;;22.38;100.00
23733;BME280;12047;53.450;-2.286;2023-07-31T18:18:14;99619.47;;;22.19;100.00
23733;BME280;12047;53.450;-2.286;2023-07-31T18:23:15;99617.63;;;22.08;100.00
23733;BME280;12047;53.450;-2.286;2023-07-31T18:28:15;99609.09;;;22.28;100.00
23733;BME280;12047;53.450;-2.286;2023-07-31T18:33:16;99610.50;;;22.30;100.00
23733;BME280;12047;53.450;-2.286;2023-07-31T18:38:16;99610.03;;;21.93;100.00
23733;BME280;12047;53.450;-2.286;2023-07-31T18:43:18;99600.28;;;22.04;100.00
23733;BME280;12047;53.450;-2.286;2023-07-31T18:48:18;99608.59;;;22.43;100.00
23733;BME280;12047;53.450;-2.286;2023-07-31T18:53:19;99603.94;;;22.55;100.00
23733;BME280;12047;53.450;-2.286;2023-07-31T18:58:19;99608.16;;;22.79;100.00
23733;BME280;12047;53.450;-2.286;2023-07-31T19:03:20;99589.28;;;21.94;100.00
23733;BME280;12047;53.450;-2.286;2023-07-31T19:08:20;99596.66;;;21.98;100.00
23733;BME280;12047;53.450;-2.286;2023-07-31T19:13:21;99575.88;;;21.00;100.00
23733;BME280;12047;53.450;-2.286;2023-07-31T19:18:21;99592.03;;;21.59;100.00
23733;BME280;12047;53.450;-2.286;2023-07-31T19:23:22;99589.47;;;21.41;100.00
23733;BME280;12047;53.450;-2.286;2023-07-31T19:28:22;99595.00;;;21.97;100.00
23733;BME280;12047;53.450;-2.286;2023-07-31T19:33:23;99586.22;;;21.90;100.00
23733;BME280;12047;53.450;-2.286;2023-07-31T19:38:23;99594.31;;;21.79;100.00
23733;BME280;12047;53.450;-2.286;2023-07-31T19:43:24;99582.34;;;21.23;100.00
23733;BME280;12047;53.450;-2.286;2023-07-31T19:48:24;99588.41;;;21.30;100.00
23733;BME280;12047;53.450;-2.286;2023-07-31T19:53:25;99584.34;;;21.27;100.00
23733;BME280;12047;53.450;-2.286;2023-07-31T19:58:26;99593.13;;;21.46;100.00
23733;BME280;12047;53.450;-2.286;2023-07-31T20:03:27;99598.50;;;21.46;100.00
23733;BME280;12047;53.450;-2.286;2023-07-31T20:08:27;99594.09;;;21.80;100.00
23733;BME280;12047;53.450;-2.286;2023-07-31T20:13:29;99587.94;;;21.56;100.00
23733;BME280;12047;53.450;-2.286;2023-07-31T20:18:31;99585.34;;;21.61;100.00
23733;BME280;12047;53.450;-2.286;2023-07-31T20:23:31;99585.81;;;21.70;100.00
23733;BME280;12047;53.450;-2.286;2023-07-31T20:28:31;99588.63;;;21.63;100.00
23733;BME280;12047;53.450;-2.286;2023-07-31T20:33:32;99594.88;;;21.52;100.00
23733;BME280;12047;53.450;-2.286;2023-07-31T20:38:32;99586.28;;;21.67;100.00
23733;BME280;12047;53.450;-2.286;2023-07-31T20:43:34;99585.69;;;21.65;100.00
23733;BME280;12047;53.450;-2.286;2023-07-31T20:48:35;99582.91;;;21.36;100.00
23733;BME280;12047;53.450;-2.286;2023-07-31T20:53:35;99579.88;;;21.33;100.00
23733;BME280;12047;53.450;-2.286;2023-07-31T20:58:37;99573.94;;;21.83;100.00
23733;BME280;12047;53.450;-2.286;2023-07-31T21:03:38;99568.22;;;21.67;100.00
23733;BME280;12047;53.450;-2.286;2023-07-31T21:08:38;99573.88;;;21.19;100.00
23733;BME280;12047;53.450;-2.286;2023-07-31T21:13:39;99566.88;;;21.93;100.00
23733;BME280;12047;53.450;-2.286;2023-07-31T21:18:39;99564.50;;;21.57;100.00
23733;BME280;12047;53.450;-2.286;2023-07-31T21:23:39;99560.78;;;21.46;100.00
23733;BME280;12047;53.450;-2.286;2023-07-31T21:28:40;99561.97;;;21.79;100.00
23733;BME280;12047;53.450;-2.286;2023-07-31T21:33:41;99567.53;;;21.60;100.00
23733;BME280;12047;53.450;-2.286;2023-07-31T21:38:42;99557.41;;;21.27;100.00
23733;BME280;12047;53.450;-2.286;2023-07-31T21:43:42;99560.78;;;21.34;100.00
23733;BME280;12047;53.450;-2.286;2023-07-31T21:48:43;99561.63;;;21.23;100.00
23733;BME280;12047;53.450;-2.286;2023-07-31T21:53:43;99549.75;;;21.13;100.00
23733;BME280;12047;53.450;-2.286;2023-07-31T21:58:44;99542.38;;;21.20;100.00
23733;BME280;12047;53.450;-2.286;2023-07-31T22:03:44;99546.34;;;21.17;100.00
23733;BME280;12047;53.450;-2.286;2023-07-31T22:08:45;99539.47;;;21.33;100.00
23733;BME280;12047;53.450;-2.286;2023-07-31T22:13:45;99545.19;;;21.36;100.00
23733;BME280;12047;53.450;-2.286;2023-07-31T22:18:46;99539.91;;;21.06;100.00
23733;BME280;12047;53.450;-2.286;2023-07-31T22:23:46;99545.22;;;21.25;100.00
23733;BME280;12047;53.450;-2.286;2023-07-31T22:28:46;99541.53;;;21.08;100.00
23733;BME280;12047;53.450;-2.286;2023-07-31T22:33:47;99543.31;;;21.14;100.00
23733;BME280;12047;53.450;-2.286;2023-07-31T22:38:47;99549.16;;;20.87;100.00
23733;BME280;12047;53.450;-2.286;2023-07-31T22:43:48;99555.00;;;20.84;100.00
23733;BME280;12047;53.450;-2.286;2023-07-31T22:48:49;99559.72;;;21.00;100.00
23733;BME280;12047;53.450;-2.286;2023-07-31T22:53:49;99552.53;;;20.83;100.00
23733;BME280;12047;53.450;-2.286;2023-07-31T22:58:50;99555.97;;;21.36;100.00
23733;BME280;12047;53.450;-2.286;2023-07-31T23:03:50;99565.81;;;21.19;100.00
23733;BME280;12047;53.450;-2.286;2023-07-31T23:08:51;99564.28;;;21.00;100.00
23733;BME280;12047;53.450;-2.286;2023-07-31T23:13:51;99555.28;;;21.41;100.00
23733;BME280;12047;53.450;-2.286;2023-07-31T23:18:52;99556.78;;;21.37;100.00
23733;BME280;12047;53.450;-2.286;2023-07-31T23:23:52;99563.19;;;21.71;100.00
23733;BME280;12047;53.450;-2.286;2023-07-31T23:28:53;99561.56;;;21.12;100.00
23733;BME280;12047;53.450;-2.286;2023-07-31T23:33:53;99560.78;;;20.99;100.00
23733;BME280;12047;53.450;-2.286;2023-07-31T23:38:54;99550.78;;;20.65;100.00
23733;BME280;12047;53.450;-2.286;2023-07-31T23:43:57;99559.91;;;20.64;100.00
23733;BME280;12047;53.450;-2.286;2023-07-31T23:48:58;99560.50;;;20.66;100.00
23733;BME280;12047;53.450;-2.286;2023-07-31T23:53:59;99560.22;;;20.56;100.00
23733;BME280;12047;53.450;-2.286;2023-07-31T23:58:59;99563.53;;;20.28;100.00
